createdAt,value
2018-02-04T00:00:25.711Z,5.22
2018-02-04T00:01:25.678Z,5.22
2018-02-04T00:02:25.625Z,5.24
2018-02-04T00:03:25.705Z,5.22
2018-02-04T00:04:25.626Z,5.21
2018-02-04T00:05:25.534Z,5.21
2018-02-04T00:06:25.560Z,5.22
2018-02-04T00:07:25.547Z,5.22
2018-02-04T00:08:25.646Z,5.22
2018-02-04T00:09:25.588Z,5.21
2018-02-04T00:10:25.642Z,5.19
2018-02-04T00:11:25.440Z,5.22
2018-02-04T00:12:26.102Z,5.22
2018-02-04T00:13:25.706Z,5.2
2018-02-04T00:14:25.721Z,5.19
2018-02-04T00:15:25.611Z,5.19
2018-02-04T00:16:25.550Z,5.19
2018-02-04T00:17:25.582Z,5.18
2018-02-04T00:18:25.622Z,5.19
2018-02-04T00:19:25.517Z,5.19
2018-02-04T00:20:25.751Z,5.18
2018-02-04T00:21:25.614Z,5.19
2018-02-04T00:22:25.744Z,5.19
2018-02-04T00:23:25.708Z,5.19
2018-02-04T00:24:25.688Z,5.19
2018-02-04T00:25:25.705Z,5.2
2018-02-04T00:26:25.653Z,5.21
2018-02-04T00:27:25.597Z,5.19
2018-02-04T00:28:25.678Z,5.2
2018-02-04T00:29:25.887Z,5.21
2018-02-04T00:30:25.928Z,5.23
2018-02-04T00:31:25.798Z,5.21
2018-02-04T00:32:25.743Z,5.19
2018-02-04T00:33:25.683Z,5.21
2018-02-04T00:34:25.775Z,5.2
2018-02-04T00:35:25.826Z,5.19
2018-02-04T00:36:25.720Z,5.19
2018-02-04T00:37:25.750Z,5.18
2018-02-04T00:38:25.733Z,5.19
2018-02-04T00:39:25.790Z,5.2
2018-02-04T00:40:25.780Z,5.19
2018-02-04T00:41:25.743Z,5.18
2018-02-04T00:42:25.750Z,5.17
2018-02-04T00:43:25.817Z,5.18
2018-02-04T00:44:25.801Z,5.19
2018-02-04T00:45:25.849Z,5.18
2018-02-04T00:46:25.811Z,5.17
2018-02-04T00:47:25.829Z,5.17
2018-02-04T00:48:25.689Z,5.15
2018-02-04T00:49:25.848Z,5.17
2018-02-04T00:50:25.756Z,5.16
2018-02-04T00:51:25.695Z,5.16
2018-02-04T00:52:25.737Z,5.16
2018-02-04T00:53:25.681Z,5.17
2018-02-04T00:54:25.804Z,5.17
2018-02-04T00:55:25.809Z,5.17
2018-02-04T00:56:25.684Z,5.17
2018-02-04T00:57:25.711Z,5.17
2018-02-04T00:58:25.666Z,5.15
2018-02-04T00:59:25.839Z,5.15
2018-02-04T01:00:25.927Z,5.17
2018-02-04T01:01:25.957Z,5.16
2018-02-04T01:02:25.909Z,5.2
2018-02-04T01:03:25.844Z,5.19
2018-02-04T01:04:25.912Z,5.19
2018-02-04T01:05:25.962Z,5.19
2018-02-04T01:06:26.056Z,5.19
2018-02-04T01:07:25.754Z,5.19
2018-02-04T01:08:25.797Z,5.17
2018-02-04T01:09:25.827Z,5.17
2018-02-04T01:10:25.914Z,5.19
2018-02-04T01:11:25.939Z,5.18
2018-02-04T01:12:25.971Z,5.16
2018-02-04T01:13:25.874Z,5.15
2018-02-04T01:14:25.888Z,5.17
2018-02-04T01:15:25.992Z,5.15
2018-02-04T01:16:26.490Z,5.14
2018-02-04T01:17:25.891Z,5.14
2018-02-04T01:18:25.934Z,5.14
2018-02-04T01:19:25.943Z,5.14
2018-02-04T01:20:25.908Z,5.13
2018-02-04T01:21:26.209Z,5.13
2018-02-04T01:22:25.907Z,5.12
2018-02-04T01:23:25.949Z,5.12
2018-02-04T01:24:25.829Z,5.14
2018-02-04T01:25:25.916Z,5.16
2018-02-04T01:26:25.798Z,5.14
2018-02-04T01:27:25.816Z,5.16
2018-02-04T01:28:25.867Z,5.13
2018-02-04T01:29:25.726Z,5.13
2018-02-04T01:30:25.849Z,5.15
2018-02-04T01:31:26.044Z,5.15
2018-02-04T01:32:25.973Z,5.15
2018-02-04T01:33:26.083Z,5.18
2018-02-04T01:34:26.012Z,5.16
2018-02-04T01:35:25.880Z,5.18
2018-02-04T01:36:26.085Z,5.19
2018-02-04T01:37:26.073Z,5.17
2018-02-04T01:38:26.014Z,5.18
2018-02-04T01:39:26.074Z,5.19
2018-02-04T01:40:25.937Z,5.18
2018-02-04T01:41:25.891Z,5.21
2018-02-04T01:42:25.865Z,5.19
2018-02-04T01:43:26.017Z,5.2
2018-02-04T01:44:26.009Z,5.18
2018-02-04T01:45:26.119Z,5.19
2018-02-04T01:46:26.024Z,5.18
2018-02-04T01:47:25.934Z,5.17
2018-02-04T01:48:26.028Z,5.17
2018-02-04T01:49:25.935Z,5.2
2018-02-04T01:50:25.910Z,5.19
2018-02-04T01:51:26.113Z,5.18
2018-02-04T01:52:26.066Z,5.18
2018-02-04T01:53:25.954Z,5.19
2018-02-04T01:54:25.901Z,5.2
2018-02-04T01:55:26.012Z,5.18
2018-02-04T01:56:26.059Z,5.18
2018-02-04T01:57:25.998Z,5.18
2018-02-04T01:58:25.989Z,5.19
2018-02-04T01:59:25.942Z,5.2
2018-02-04T02:00:26.010Z,5.19
2018-02-04T02:01:26.194Z,5.18
2018-02-04T02:02:26.048Z,5.18
2018-02-04T02:03:26.094Z,5.2
2018-02-04T02:04:26.033Z,5.19
2018-02-04T02:05:26.092Z,5.2
2018-02-04T02:06:26.251Z,5.19
2018-02-04T02:07:25.996Z,5.2
2018-02-04T02:08:26.102Z,5.21
2018-02-04T02:09:26.097Z,5.2
2018-02-04T02:10:26.064Z,5.21
2018-02-04T02:11:26.214Z,5.21
2018-02-04T02:12:26.065Z,5.21
2018-02-04T02:13:26.136Z,5.2
2018-02-04T02:14:26.206Z,5.21
2018-02-04T02:15:26.061Z,5.21
2018-02-04T02:16:26.084Z,5.2
2018-02-04T02:17:26.118Z,5.2
2018-02-04T02:18:26.104Z,5.22
2018-02-04T02:19:26.165Z,5.22
2018-02-04T02:20:26.058Z,5.22
2018-02-04T02:21:25.953Z,5.21
2018-02-04T02:22:25.959Z,5.22
2018-02-04T02:23:26.090Z,5.2
2018-02-04T02:24:26.101Z,5.22
2018-02-04T02:25:26.012Z,5.22
2018-02-04T02:26:26.034Z,5.22
2018-02-04T02:27:26.118Z,5.22
2018-02-04T02:28:26.076Z,5.23
2018-02-04T02:29:26.087Z,5.23
2018-02-04T02:30:26.152Z,5.21
2018-02-04T02:31:26.364Z,5.22
2018-02-04T02:32:26.158Z,5.2
2018-02-04T02:33:26.203Z,5.21
2018-02-04T02:34:26.269Z,5.22
2018-02-04T02:35:26.171Z,5.22
2018-02-04T02:36:26.186Z,5.19
2018-02-04T02:37:26.284Z,5.21
2018-02-04T02:38:26.224Z,5.22
2018-02-04T02:39:26.119Z,5.21
2018-02-04T02:40:26.178Z,5.2
2018-02-04T02:41:26.307Z,5.22
2018-02-04T02:42:26.198Z,5.21
2018-02-04T02:43:26.215Z,5.24
2018-02-04T02:44:26.261Z,5.22
2018-02-04T02:45:26.213Z,5.21
2018-02-04T02:46:26.158Z,5.21
2018-02-04T02:47:26.284Z,5.23
2018-02-04T02:48:26.106Z,5.23
2018-02-04T02:49:26.045Z,5.21
2018-02-04T02:50:26.251Z,5.22
2018-02-04T02:51:26.118Z,5.23
2018-02-04T02:52:26.355Z,5.24
2018-02-04T02:53:26.050Z,5.23
2018-02-04T02:54:26.187Z,5.24
2018-02-04T02:55:26.196Z,5.23
2018-02-04T02:56:26.200Z,5.23
2018-02-04T02:57:26.269Z,5.23
2018-02-04T02:58:26.115Z,5.22
2018-02-04T02:59:26.223Z,5.23
2018-02-04T03:00:26.514Z,5.24
2018-02-04T03:01:25.519Z,5.22
2018-02-04T03:02:25.543Z,5.24
2018-02-04T03:03:25.506Z,5.24
2018-02-04T03:04:25.512Z,5.24
2018-02-04T03:05:25.497Z,5.23
2018-02-04T03:06:25.407Z,5.22
2018-02-04T03:07:25.480Z,5.21
2018-02-04T03:08:25.481Z,5.21
2018-02-04T03:09:25.384Z,5.23
2018-02-04T03:10:25.393Z,5.26
2018-02-04T03:11:25.454Z,5.24
2018-02-04T03:12:25.804Z,5.25
2018-02-04T03:13:26.118Z,5.22
2018-02-04T03:14:25.534Z,5.24
2018-02-04T03:15:25.541Z,5.24
2018-02-04T03:16:25.601Z,5.23
2018-02-04T03:17:25.478Z,5.24
2018-02-04T03:18:25.573Z,5.24
2018-02-04T03:19:25.477Z,5.23
2018-02-04T03:20:25.321Z,5.21
2018-02-04T03:21:25.520Z,5.22
2018-02-04T03:22:25.501Z,5.22
2018-02-04T03:23:25.626Z,5.2
2018-02-04T03:24:25.670Z,5.2
2018-02-04T03:25:25.477Z,5.23
2018-02-04T03:26:25.494Z,5.22
2018-02-04T03:27:25.483Z,5.22
2018-02-04T03:28:25.467Z,5.22
2018-02-04T03:29:25.729Z,5.21
2018-02-04T03:30:25.573Z,5.22
2018-02-04T03:31:25.587Z,5.22
2018-02-04T03:32:25.675Z,5.2
2018-02-04T03:33:25.627Z,5.21
2018-02-04T03:34:25.669Z,5.21
2018-02-04T03:35:26.590Z,5.21
2018-02-04T03:36:25.653Z,5.22
2018-02-04T03:37:25.580Z,5.23
2018-02-04T03:38:25.706Z,5.21
2018-02-04T03:39:25.518Z,5.22
2018-02-04T03:40:25.587Z,5.22
2018-02-04T03:41:25.636Z,5.21
2018-02-04T03:42:25.613Z,5.21
2018-02-04T03:43:25.455Z,5.21
2018-02-04T03:44:25.729Z,5.22
2018-02-04T03:45:25.600Z,5.22
2018-02-04T03:46:25.618Z,5.2
2018-02-04T03:47:25.574Z,5.2
2018-02-04T03:48:25.602Z,5.2
2018-02-04T03:49:25.520Z,5.19
2018-02-04T03:50:25.464Z,5.2
2018-02-04T03:51:25.618Z,5.2
2018-02-04T03:52:25.514Z,5.21
2018-02-04T03:53:25.526Z,5.22
2018-02-04T03:54:25.530Z,5.2
2018-02-04T03:55:25.700Z,5.21
2018-02-04T03:56:25.669Z,5.2
2018-02-04T03:57:25.425Z,5.2
2018-02-04T03:58:25.649Z,5.2
2018-02-04T03:59:25.541Z,5.2
2018-02-04T04:00:25.636Z,5.22
2018-02-04T04:01:25.530Z,5.22
2018-02-04T04:02:25.469Z,5.23
2018-02-04T04:03:25.633Z,5.21
2018-02-04T04:04:25.651Z,5.22
2018-02-04T04:05:25.661Z,5.22
2018-02-04T04:06:25.537Z,5.22
2018-02-04T04:07:25.625Z,5.21
2018-02-04T04:08:25.610Z,5.22
2018-02-04T04:09:25.620Z,5.22
2018-02-04T04:10:25.602Z,5.21
2018-02-04T04:11:25.712Z,5.2
2018-02-04T04:12:25.527Z,5.2
2018-02-04T04:13:25.607Z,5.19
2018-02-04T04:14:25.675Z,5.2
2018-02-04T04:15:25.620Z,5.21
2018-02-04T04:16:25.543Z,5.2
2018-02-04T04:17:25.665Z,5.19
2018-02-04T04:18:25.761Z,5.18
2018-02-04T04:19:25.431Z,5.19
2018-02-04T04:20:25.597Z,5.21
2018-02-04T04:21:25.475Z,5.2
2018-02-04T04:22:25.609Z,5.21
2018-02-04T04:23:25.523Z,5.23
2018-02-04T04:24:25.425Z,5.22
2018-02-04T04:25:25.605Z,5.21
2018-02-04T04:26:25.498Z,5.21
2018-02-04T04:27:25.326Z,5.22
2018-02-04T04:28:25.577Z,5.22
2018-02-04T04:29:25.678Z,5.2
2018-02-04T04:30:25.595Z,5.2
2018-02-04T04:31:25.591Z,5.2
2018-02-04T04:32:25.612Z,5.19
2018-02-04T04:33:25.646Z,5.2
2018-02-04T04:34:25.673Z,5.21
2018-02-04T04:35:25.825Z,5.21
2018-02-04T04:38:25.719Z,5.2
2018-02-04T04:39:25.637Z,5.2
2018-02-04T04:40:25.603Z,5.2
2018-02-04T04:41:25.670Z,5.21
2018-02-04T04:42:25.693Z,5.2
2018-02-04T04:43:25.739Z,5.19
2018-02-04T04:44:25.586Z,5.2
2018-02-04T04:45:25.752Z,5.23
2018-02-04T04:46:25.712Z,5.22
2018-02-04T04:47:25.804Z,5.2
2018-02-04T04:48:25.694Z,5.2
2018-02-04T04:49:25.655Z,5.21
2018-02-04T04:50:25.675Z,5.21
2018-02-04T04:51:25.693Z,5.21
2018-02-04T04:52:25.723Z,5.21
2018-02-04T04:53:25.569Z,5.21
2018-02-04T04:54:25.753Z,5.2
2018-02-04T04:55:25.709Z,5.2
2018-02-04T04:56:25.565Z,5.21
2018-02-04T04:57:25.634Z,5.19
2018-02-04T04:58:25.695Z,5.19
2018-02-04T04:59:25.741Z,5.19
2018-02-04T05:00:25.719Z,5.19
2018-02-04T05:01:25.633Z,5.2
2018-02-04T05:02:25.670Z,5.18
2018-02-04T05:03:25.714Z,5.18
2018-02-04T05:04:25.776Z,5.19
2018-02-04T05:05:25.791Z,5.19
2018-02-04T05:06:25.671Z,5.19
2018-02-04T05:07:25.703Z,5.2
2018-02-04T05:08:25.941Z,5.19
2018-02-04T05:09:25.870Z,5.18
2018-02-04T05:10:25.900Z,5.18
2018-02-04T05:11:25.778Z,5.19
2018-02-04T05:12:25.857Z,5.21
2018-02-04T05:14:25.949Z,5.19
2018-02-04T05:15:25.744Z,5.19
2018-02-04T05:16:25.811Z,5.19
2018-02-04T05:17:25.816Z,5.21
2018-02-04T05:18:25.638Z,5.2
2018-02-04T05:19:25.796Z,5.2
2018-02-04T05:20:25.836Z,5.2
2018-02-04T05:21:25.765Z,5.19
2018-02-04T05:22:25.779Z,5.21
2018-02-04T05:23:25.885Z,5.2
2018-02-04T05:24:25.833Z,5.18
2018-02-04T05:25:25.909Z,5.21
2018-02-04T05:26:25.843Z,5.23
2018-02-04T05:27:25.783Z,5.22
2018-02-04T05:28:25.702Z,5.2
2018-02-04T05:29:25.782Z,5.21
2018-02-04T05:30:25.662Z,5.22
2018-02-04T05:31:25.835Z,5.2
2018-02-04T05:32:25.808Z,5.22
2018-02-04T05:33:25.862Z,5.2
2018-02-04T05:34:25.997Z,5.19
2018-02-04T05:35:25.888Z,5.22
2018-02-04T05:36:25.966Z,5.22
2018-02-04T05:37:25.917Z,5.22
2018-02-04T05:38:25.885Z,5.22
2018-02-04T05:39:25.996Z,5.21
2018-02-04T05:40:25.946Z,5.21
2018-02-04T05:41:25.898Z,5.23
2018-02-04T05:42:25.924Z,5.21
2018-02-04T05:43:25.866Z,5.23
2018-02-04T05:44:26.010Z,5.23
2018-02-04T05:45:26.134Z,5.22
2018-02-04T05:46:25.962Z,5.21
2018-02-04T05:47:25.916Z,5.24
2018-02-04T05:48:25.896Z,5.24
2018-02-04T05:49:25.906Z,5.23
2018-02-04T05:50:25.991Z,5.24
2018-02-04T05:51:25.826Z,5.24
2018-02-04T05:52:25.911Z,5.23
2018-02-04T05:53:25.872Z,5.22
2018-02-04T05:54:26.106Z,5.22
2018-02-04T05:55:25.999Z,5.23
2018-02-04T05:56:25.901Z,5.22
2018-02-04T05:57:26.062Z,5.21
2018-02-04T05:58:25.924Z,5.22
2018-02-04T05:59:25.983Z,5.22
2018-02-04T06:00:26.250Z,5.22
2018-02-04T06:01:25.862Z,5.22
2018-02-04T06:02:25.996Z,5.22
2018-02-04T06:03:25.921Z,5.24
2018-02-04T06:04:26.049Z,5.22
2018-02-04T06:05:26.035Z,5.22
2018-02-04T06:06:26.216Z,5.22
2018-02-04T06:07:25.980Z,5.22
2018-02-04T06:08:26.059Z,5.23
2018-02-04T06:09:26.044Z,5.23
2018-02-04T06:10:26.051Z,5.23
2018-02-04T06:11:25.967Z,5.25
2018-02-04T06:12:26.053Z,5.25
2018-02-04T06:13:25.892Z,5.24
2018-02-04T06:14:25.833Z,5.24
2018-02-04T06:15:25.899Z,5.24
2018-02-04T06:16:25.925Z,5.26
2018-02-04T06:17:25.936Z,5.24
2018-02-04T06:18:26.092Z,5.24
2018-02-04T06:19:26.005Z,5.24
2018-02-04T06:20:26.004Z,5.25
2018-02-04T06:21:25.908Z,5.24
2018-02-04T06:22:25.938Z,5.24
2018-02-04T06:23:25.991Z,5.26
2018-02-04T06:24:26.064Z,5.26
2018-02-04T06:25:26.243Z,5.26
2018-02-04T06:26:26.138Z,5.26
2018-02-04T06:27:26.021Z,5.26
2018-02-04T06:28:25.946Z,5.26
2018-02-04T06:29:25.965Z,5.26
2018-02-04T06:30:25.943Z,5.28
2018-02-04T06:31:26.000Z,5.29
2018-02-04T06:32:25.982Z,5.26
2018-02-04T06:33:26.035Z,5.25
2018-02-04T06:34:25.973Z,5.26
2018-02-04T06:35:26.296Z,5.29
2018-02-04T06:36:25.938Z,5.28
2018-02-04T06:37:26.089Z,5.26
2018-02-04T06:38:26.243Z,5.27
2018-02-04T06:39:26.153Z,5.28
2018-02-04T06:40:26.161Z,5.26
2018-02-04T06:41:26.295Z,5.26
2018-02-04T06:42:26.216Z,5.27
2018-02-04T06:43:26.350Z,5.28
2018-02-04T06:44:26.088Z,5.27
2018-02-04T06:45:26.283Z,5.28
2018-02-04T06:46:26.187Z,5.27
2018-02-04T06:47:26.152Z,5.27
2018-02-04T06:48:26.133Z,5.27
2018-02-04T06:49:26.406Z,5.25
2018-02-04T06:50:26.173Z,5.26
2018-02-04T06:51:26.222Z,5.26
2018-02-04T06:52:26.141Z,5.25
2018-02-04T06:53:26.106Z,5.25
2018-02-04T06:54:25.962Z,5.26
2018-02-04T06:55:26.031Z,5.29
2018-02-04T06:56:26.191Z,5.26
2018-02-04T06:57:26.260Z,5.28
2018-02-04T06:58:26.129Z,5.27
2018-02-04T06:59:26.450Z,5.26
2018-02-04T07:00:26.053Z,5.27
2018-02-04T07:01:26.265Z,5.27
2018-02-04T07:02:26.050Z,5.29
2018-02-04T07:03:26.117Z,5.28
2018-02-04T07:04:26.179Z,5.32
2018-02-04T07:05:26.199Z,5.29
2018-02-04T07:06:26.209Z,5.31
2018-02-04T07:07:26.136Z,5.3
2018-02-04T07:08:26.294Z,5.3
2018-02-04T07:09:26.204Z,5.3
2018-02-04T07:10:26.206Z,5.31
2018-02-04T07:11:26.254Z,5.3
2018-02-04T07:12:26.291Z,5.31
2018-02-04T07:13:26.106Z,5.33
2018-02-04T07:14:26.287Z,5.31
2018-02-04T07:15:26.327Z,5.34
2018-02-04T07:16:26.344Z,5.35
2018-02-04T07:17:26.266Z,5.36
2018-02-04T07:18:26.148Z,5.34
2018-02-04T07:19:26.237Z,5.33
2018-02-04T07:20:26.311Z,5.33
2018-02-04T07:21:26.015Z,5.32
2018-02-04T07:22:26.163Z,5.32
2018-02-04T07:23:26.222Z,5.32
2018-02-04T07:24:26.249Z,5.33
2018-02-04T07:25:26.146Z,5.33
2018-02-04T07:26:26.298Z,5.32
2018-02-04T07:27:26.140Z,5.33
2018-02-04T07:28:26.323Z,5.33
2018-02-04T07:29:26.090Z,5.33
2018-02-04T07:30:26.292Z,5.31
2018-02-04T07:31:26.060Z,5.31
2018-02-04T07:32:26.287Z,5.32
2018-02-04T07:33:26.295Z,5.31
2018-02-04T07:34:26.068Z,5.31
2018-02-04T07:35:26.307Z,5.3
2018-02-04T07:36:25.219Z,5.32
2018-02-04T07:37:25.331Z,5.32
2018-02-04T07:38:25.337Z,5.32
2018-02-04T07:39:25.325Z,5.32
2018-02-04T07:40:25.500Z,5.34
2018-02-04T07:41:25.341Z,5.34
2018-02-04T07:42:25.289Z,5.33
2018-02-04T07:43:25.338Z,5.33
2018-02-04T07:44:25.292Z,5.32
2018-02-04T07:45:25.352Z,5.32
2018-02-04T07:46:25.282Z,5.33
2018-02-04T07:47:25.288Z,5.33
2018-02-04T07:48:25.594Z,5.34
2018-02-04T07:49:25.339Z,5.32
2018-02-04T07:50:25.232Z,5.31
2018-02-04T07:51:25.304Z,5.33
2018-02-04T07:52:25.137Z,5.32
2018-02-04T07:53:25.546Z,5.32
2018-02-04T07:54:25.296Z,5.31
2018-02-04T07:55:25.332Z,5.32
2018-02-04T07:56:25.277Z,5.32
2018-02-04T07:57:25.334Z,5.33
2018-02-04T07:58:25.341Z,5.34
2018-02-04T07:59:25.319Z,5.33
2018-02-04T08:00:25.150Z,5.33
2018-02-04T08:01:25.361Z,5.32
2018-02-04T08:02:25.482Z,5.32
2018-02-04T08:03:25.360Z,5.32
2018-02-04T08:04:25.211Z,5.34
2018-02-04T08:05:25.430Z,5.33
2018-02-04T08:06:25.354Z,5.33
2018-02-04T08:07:25.208Z,5.32
2018-02-04T08:08:25.425Z,5.32
2018-02-04T08:09:25.330Z,5.33
2018-02-04T08:10:25.374Z,5.32
2018-02-04T08:11:25.257Z,5.34
2018-02-04T08:12:25.470Z,5.32
2018-02-04T08:13:25.549Z,5.31
2018-02-04T08:14:25.608Z,5.29
2018-02-04T08:15:25.336Z,5.27
2018-02-04T08:16:25.366Z,5.3
2018-02-04T08:17:25.511Z,5.29
2018-02-04T08:18:25.407Z,5.31
2018-02-04T08:19:25.558Z,5.3
2018-02-04T08:20:25.359Z,5.3
2018-02-04T08:21:25.447Z,5.27
2018-02-04T08:22:25.229Z,5.29
2018-02-04T08:23:25.380Z,5.29
2018-02-04T08:24:25.419Z,5.28
2018-02-04T08:25:25.405Z,5.28
2018-02-04T08:26:25.422Z,5.29
2018-02-04T08:27:25.405Z,5.32
2018-02-04T08:28:25.428Z,5.3
2018-02-04T08:29:25.178Z,5.29
2018-02-04T08:30:25.342Z,5.3
2018-02-04T08:31:25.414Z,5.3
2018-02-04T08:32:25.584Z,5.31
2018-02-04T08:33:25.351Z,5.29
2018-02-04T08:34:25.411Z,5.28
2018-02-04T08:35:25.256Z,5.31
2018-02-04T08:36:25.366Z,5.32
2018-02-04T08:37:25.385Z,5.31
2018-02-04T08:38:25.368Z,5.34
2018-02-04T08:39:25.428Z,5.28
2018-02-04T08:40:25.438Z,5.24
2018-02-04T08:41:25.307Z,5.21
2018-02-04T08:42:25.226Z,5.22
2018-02-04T08:43:25.420Z,5.22
2018-02-04T08:44:25.346Z,5.21
2018-02-04T08:45:25.668Z,5.19
2018-02-04T08:46:25.342Z,5.2
2018-02-04T08:47:25.476Z,5.18
2018-02-04T08:48:25.330Z,5.16
2018-02-04T08:49:25.457Z,5.13
2018-02-04T08:50:25.399Z,5.14
2018-02-04T08:51:25.326Z,5.14
2018-02-04T08:52:25.382Z,5.15
2018-02-04T08:53:25.460Z,5.15
2018-02-04T08:54:25.273Z,5.15
2018-02-04T08:55:25.440Z,5.15
2018-02-04T08:56:25.331Z,5.13
2018-02-04T08:57:25.384Z,5.15
2018-02-04T08:58:25.548Z,5.14
2018-02-04T08:59:25.310Z,5.12
2018-02-04T09:00:25.402Z,5.13
2018-02-04T09:01:25.367Z,5.14
2018-02-04T09:02:25.638Z,5.13
2018-02-04T09:03:25.380Z,5.13
2018-02-04T09:04:25.354Z,5.12
2018-02-04T09:05:25.418Z,5.13
2018-02-04T09:06:25.258Z,5.1
2018-02-04T09:07:26.580Z,5.11
2018-02-04T09:08:25.498Z,5.11
2018-02-04T09:09:25.506Z,5.13
2018-02-04T09:10:25.420Z,5.11
2018-02-04T09:11:25.711Z,5.11
2018-02-04T09:12:25.637Z,5.11
2018-02-04T09:13:25.359Z,5.1
2018-02-04T09:14:25.439Z,5.09
2018-02-04T09:15:25.490Z,5.11
2018-02-04T09:16:25.515Z,5.1
2018-02-04T09:17:25.539Z,5.1
2018-02-04T09:18:25.523Z,5.1
2018-02-04T09:19:25.481Z,5.1
2018-02-04T09:20:25.747Z,5.11
2018-02-04T09:21:25.575Z,5.1
2018-02-04T09:22:25.685Z,5.12
2018-02-04T09:23:25.487Z,5.09
2018-02-04T09:24:25.604Z,5.05
2018-02-04T09:25:25.656Z,5.09
2018-02-04T09:26:25.531Z,5.07
2018-02-04T09:27:25.674Z,5.08
2018-02-04T09:28:25.430Z,5.08
2018-02-04T09:29:25.549Z,5.09
2018-02-04T09:30:25.559Z,5.1
2018-02-04T09:31:25.542Z,5.09
2018-02-04T09:32:25.668Z,5.11
2018-02-04T09:33:25.835Z,5.11
2018-02-04T09:34:25.708Z,5.09
2018-02-04T09:35:25.696Z,5.11
2018-02-04T09:36:25.716Z,5.11
2018-02-04T09:37:25.525Z,5.11
2018-02-04T09:38:25.645Z,5.1
2018-02-04T09:39:25.594Z,5.1
2018-02-04T09:40:25.651Z,5.1
2018-02-04T09:41:25.428Z,5.09
2018-02-04T09:42:25.597Z,5.06
2018-02-04T09:43:25.622Z,5.08
2018-02-04T09:44:25.663Z,5.09
2018-02-04T09:45:25.561Z,5.09
2018-02-04T09:46:25.631Z,5.08
2018-02-04T09:47:25.513Z,5.09
2018-02-04T09:48:25.591Z,5.1
2018-02-04T09:49:25.610Z,5.1
2018-02-04T09:50:25.636Z,5.1
2018-02-04T09:51:25.543Z,5.09
2018-02-04T09:52:25.599Z,5.08
2018-02-04T09:53:25.591Z,5.08
2018-02-04T09:54:25.607Z,5.08
2018-02-04T09:55:25.894Z,5.08
2018-02-04T09:56:25.543Z,5.09
2018-02-04T09:57:25.896Z,5.08
2018-02-04T09:58:25.775Z,5.09
2018-02-04T09:59:25.764Z,5.08
2018-02-04T10:00:25.497Z,5.08
2018-02-04T10:01:25.523Z,5.09
2018-02-04T10:02:25.545Z,5.09
2018-02-04T10:03:25.633Z,5.06
2018-02-04T10:04:25.576Z,5.06
2018-02-04T10:05:26.061Z,5.07
2018-02-04T10:06:26.140Z,5.07
2018-02-04T10:07:26.237Z,5.09
2018-02-04T10:08:25.631Z,5.08
2018-02-04T10:09:25.539Z,5.09
2018-02-04T10:10:25.419Z,5.1
2018-02-04T10:11:25.611Z,5.09
2018-02-04T10:12:29.325Z,5.08
2018-02-04T10:13:25.429Z,5.08
2018-02-04T10:14:25.664Z,5.08
2018-02-04T10:15:25.481Z,5.08
2018-02-04T10:16:25.405Z,5.08
2018-02-04T10:17:25.530Z,5.07
2018-02-04T10:18:25.629Z,5.07
2018-02-04T10:19:25.471Z,5.05
2018-02-04T10:20:25.540Z,5.07
2018-02-04T10:21:25.663Z,5.06
2018-02-04T10:22:25.554Z,5.06
2018-02-04T10:23:25.663Z,5.1
2018-02-04T10:24:33.889Z,5.14
2018-02-04T10:25:25.637Z,5.07
2018-02-04T10:26:26.298Z,5.04
2018-02-04T10:27:25.439Z,5.02
2018-02-04T10:28:25.647Z,5.01
2018-02-04T10:29:25.618Z,4.99
2018-02-04T10:30:25.523Z,4.99
2018-02-04T10:31:25.623Z,5
2018-02-04T10:32:25.571Z,5.03
2018-02-04T10:33:29.782Z,5.01
2018-02-04T10:34:25.616Z,4.98
2018-02-04T10:35:25.633Z,4.99
2018-02-04T10:36:25.652Z,4.99
2018-02-04T10:37:25.540Z,4.98
2018-02-04T10:38:25.732Z,4.99
2018-02-04T10:39:25.745Z,4.98
2018-02-04T10:40:25.744Z,4.99
2018-02-04T10:41:25.666Z,4.97
2018-02-04T10:42:25.638Z,4.97
2018-02-04T10:43:25.715Z,4.96
2018-02-04T10:44:25.696Z,4.95
2018-02-04T10:45:25.718Z,4.99
2018-02-04T10:46:25.746Z,4.95
2018-02-04T10:47:25.693Z,4.96
2018-02-04T10:48:25.786Z,4.98
2018-02-04T10:49:25.785Z,4.96
2018-02-04T10:50:25.801Z,4.97
2018-02-04T10:51:25.781Z,4.97
2018-02-04T10:52:25.787Z,4.98
2018-02-04T10:53:25.703Z,4.99
2018-02-04T10:54:25.740Z,5.01
2018-02-04T10:55:25.731Z,4.99
2018-02-04T10:56:25.756Z,4.99
2018-02-04T10:57:25.751Z,4.97
2018-02-04T10:58:25.726Z,4.98
2018-02-04T10:59:25.665Z,4.99
2018-02-04T11:00:25.683Z,4.98
2018-02-04T11:01:25.596Z,5
2018-02-04T11:02:25.625Z,4.99
2018-02-04T11:03:25.633Z,5.03
2018-02-04T11:04:25.664Z,4.99
2018-02-04T11:05:25.656Z,4.98
2018-02-04T11:06:25.691Z,4.99
2018-02-04T11:07:25.626Z,4.99
2018-02-04T11:08:25.619Z,4.95
2018-02-04T11:09:25.732Z,4.97
2018-02-04T11:10:25.741Z,4.96
2018-02-04T11:11:25.715Z,4.94
2018-02-04T11:12:25.619Z,4.93
2018-02-04T11:13:25.643Z,4.92
2018-02-04T11:14:25.696Z,4.91
2018-02-04T11:15:25.761Z,4.86
2018-02-04T11:16:26.262Z,4.9
2018-02-04T11:17:25.867Z,4.88
2018-02-04T11:18:25.680Z,4.89
2018-02-04T11:19:25.825Z,4.89
2018-02-04T11:20:25.717Z,4.86
2018-02-04T11:21:25.747Z,4.9
2018-02-04T11:22:25.813Z,4.9
2018-02-04T11:23:25.852Z,4.91
2018-02-04T11:24:25.859Z,4.94
2018-02-04T11:25:25.828Z,4.96
2018-02-04T11:26:25.697Z,4.95
2018-02-04T11:27:25.675Z,4.92
2018-02-04T11:28:25.636Z,4.97
2018-02-04T11:29:25.676Z,4.94
2018-02-04T11:30:25.657Z,4.94
2018-02-04T11:31:25.859Z,4.96
2018-02-04T11:32:25.799Z,4.99
2018-02-04T11:33:25.818Z,5.01
2018-02-04T11:34:25.621Z,4.98
2018-02-04T11:35:25.694Z,4.98
2018-02-04T11:36:25.681Z,4.99
2018-02-04T11:37:25.700Z,4.98
2018-02-04T11:38:25.674Z,4.98
2018-02-04T11:39:25.790Z,5
2018-02-04T11:40:25.773Z,4.96
2018-02-04T11:41:25.597Z,4.97
2018-02-04T11:42:25.891Z,4.97
2018-02-04T11:43:25.479Z,4.99
2018-02-04T11:44:25.372Z,4.95
2018-02-04T11:45:25.535Z,4.9
2018-02-04T11:46:25.451Z,4.95
2018-02-04T11:47:25.607Z,4.9
2018-02-04T11:48:25.409Z,4.96
2018-02-04T11:49:25.569Z,4.96
2018-02-04T11:50:25.444Z,4.99
2018-02-04T11:51:25.441Z,5
2018-02-04T11:52:25.505Z,5.03
2018-02-04T11:53:25.435Z,5.02
2018-02-04T11:54:25.456Z,5.01
2018-02-04T11:55:25.446Z,5.04
2018-02-04T11:56:25.473Z,5.05
2018-02-04T11:57:25.350Z,5.04
2018-02-04T11:58:25.444Z,4.99
2018-02-04T11:59:25.441Z,5.05
2018-02-04T12:00:25.399Z,5.01
2018-02-04T12:01:25.373Z,5.04
2018-02-04T12:02:25.518Z,4.98
2018-02-04T12:03:25.353Z,4.92
2018-02-04T12:04:25.546Z,4.96
2018-02-04T12:05:25.857Z,5.01
2018-02-04T12:06:25.503Z,4.95
2018-02-04T12:07:25.598Z,4.92
2018-02-04T12:08:25.464Z,4.96
2018-02-04T12:09:25.564Z,4.97
2018-02-04T12:10:25.839Z,4.91
2018-02-04T12:11:25.567Z,4.95
2018-02-04T12:12:26.304Z,4.95
2018-02-04T12:13:26.243Z,4.87
2018-02-04T12:14:26.194Z,4.91
2018-02-04T12:15:26.141Z,4.96
2018-02-04T12:16:26.293Z,4.93
2018-02-04T12:17:26.294Z,4.86
2018-02-04T12:18:26.424Z,4.87
2018-02-04T12:19:29.271Z,4.88
2018-02-04T12:20:27.078Z,4.85
2018-02-04T12:21:27.804Z,4.88
2018-02-04T12:22:26.259Z,4.9
2018-02-04T12:23:26.237Z,4.86
2018-02-04T12:24:26.291Z,4.87
2018-02-04T12:25:26.244Z,4.9
2018-02-04T12:26:26.301Z,4.86
2018-02-04T12:27:26.238Z,4.87
2018-02-04T12:28:26.302Z,4.9
2018-02-04T12:29:26.375Z,4.93
2018-02-04T12:30:26.304Z,4.82
2018-02-04T12:31:26.602Z,4.84
2018-02-04T12:32:27.122Z,4.86
2018-02-04T12:33:26.950Z,4.84
2018-02-04T12:34:26.640Z,4.79
2018-02-04T12:35:26.857Z,4.87
2018-02-04T12:36:26.655Z,4.82
2018-02-04T12:37:27.003Z,4.75
2018-02-04T12:38:37.149Z,4.72
2018-02-04T12:39:26.657Z,4.75
2018-02-04T12:40:26.562Z,4.77
2018-02-04T12:41:27.022Z,4.76
2018-02-04T12:42:26.906Z,4.73
2018-02-04T12:43:26.476Z,4.7
2018-02-04T12:44:26.065Z,4.72
2018-02-04T12:45:26.513Z,4.77
2018-02-04T12:46:26.171Z,4.79
2018-02-04T12:47:26.026Z,4.77
2018-02-04T12:48:26.311Z,4.73
2018-02-04T12:49:26.197Z,4.77
2018-02-04T12:50:26.402Z,4.7
2018-02-04T12:51:26.223Z,4.68
2018-02-04T12:52:26.180Z,4.72
2018-02-04T12:53:26.185Z,4.72
2018-02-04T12:54:26.475Z,4.69
2018-02-04T12:55:26.642Z,4.69
2018-02-04T12:56:26.252Z,4.74
2018-02-04T12:57:26.713Z,4.71
2018-02-04T12:58:26.120Z,4.7
2018-02-04T12:59:26.407Z,4.7
2018-02-04T13:00:26.520Z,4.7
2018-02-04T13:01:26.212Z,4.72
2018-02-04T13:02:26.397Z,4.72
2018-02-04T13:03:26.546Z,4.69
2018-02-04T13:04:26.131Z,4.75
2018-02-04T13:05:26.015Z,4.77
2018-02-04T13:06:26.384Z,4.7
2018-02-04T13:07:26.337Z,4.76
2018-02-04T13:08:26.760Z,4.67
2018-02-04T13:09:26.094Z,4.63
2018-02-04T13:10:27.164Z,4.64
2018-02-04T13:11:26.201Z,4.67
2018-02-04T13:12:26.421Z,4.61
2018-02-04T13:13:26.507Z,4.6
2018-02-04T13:14:26.254Z,4.62
2018-02-04T13:15:26.273Z,4.59
2018-02-04T13:16:25.954Z,4.67
2018-02-04T13:17:25.677Z,4.72
2018-02-04T13:18:25.626Z,4.66
2018-02-04T13:19:25.758Z,4.67
2018-02-04T13:20:25.832Z,4.64
2018-02-04T13:21:25.898Z,4.66
2018-02-04T13:22:25.798Z,4.64
2018-02-04T13:23:25.828Z,4.61
2018-02-04T13:24:25.716Z,4.63
2018-02-04T13:25:25.849Z,4.59